Time;durP1;ratioP1;P1;durP2;ratioP2;P2;SDS_P1;SDS_P2;PMS_P1;PMS_P2;Temp;Humidity;BMP_temperature;BMP_pressure;BME280_temperature;BME280_humidity;BME280_pressure;Samples;Min_cycle;Max_cycle;Signal;HPM_P1;HPM_P2
2022/11/08 00:01:31;;;;;;;9.50;2.42;;;13.20;99.90;;;;;;5034109;28;20045;-71
2022/11/08 00:03:58;;;;;;;9.45;2.33;;;13.30;99.90;;;;;;5033947;28;20145;-71
2022/11/08 00:14:36;;;;;;;10.68;2.75;;;13.30;99.90;;;;;;5069417;28;20048;-70
2022/11/08 00:17:02;;;;;;;12.85;2.92;;;13.30;99.90;;;;;;5053948;28;20036;-71
2022/11/08 00:19:27;;;;;;;12.38;2.75;;;13.40;99.90;;;;;;5053445;28;20033;-70
2022/11/08 00:21:53;;;;;;;11.23;2.33;;;13.40;99.90;;;;;;5052784;28;20167;-71
2022/11/08 00:24:18;;;;;;;8.27;2.53;;;13.30;99.90;;;;;;5052644;28;20044;-70
2022/11/08 00:26:44;;;;;;;7.45;2.30;;;13.30;99.90;;;;;;5053603;28;20531;-71
2022/11/08 00:29:09;;;;;;;13.27;2.30;;;13.30;99.90;;;;;;5037235;28;20148;-70
2022/11/08 00:31:35;;;;;;;14.02;2.80;;;13.30;99.90;;;;;;5052900;28;20089;-70
2022/11/08 00:34:01;;;;;;;11.57;2.50;;;13.30;99.90;;;;;;5053439;28;20048;-70
2022/11/08 00:36:26;;;;;;;13.00;2.58;;;13.30;99.90;;;;;;5069148;28;20036;-70
2022/11/08 00:38:52;;;;;;;9.07;2.25;;;13.30;99.90;;;;;;5070087;28;20037;-70
2022/11/08 00:41:17;;;;;;;7.15;2.30;;;13.30;99.90;;;;;;5052962;28;20363;-70
2022/11/08 00:43:43;;;;;;;9.98;2.20;;;13.30;99.90;;;;;;5069983;28;20087;-71
2022/11/08 00:46:08;;;;;;;9.05;2.35;;;13.30;99.90;;;;;;5059242;28;20034;-70
2022/11/08 00:48:34;;;;;;;11.45;2.58;;;13.30;99.90;;;;;;5052489;28;20037;-71
2022/11/08 00:51:04;;;;;;;12.40;2.70;;;13.30;99.90;;;;;;5053241;28;20047;-70
2022/11/08 00:53:30;;;;;;;10.43;2.55;;;13.30;99.90;;;;;;5036371;28;20045;-70
2022/11/08 00:56:04;;;;;;;11.40;2.70;;;13.30;99.90;;;;;;5052129;28;20065;-71
2022/11/08 00:58:30;;;;;;;13.48;2.47;;;13.30;99.90;;;;;;5069601;28;20072;-70
2022/11/08 01:00:56;;;;;;;9.05;2.53;;;13.30;99.90;;;;;;5053147;28;20139;-70
2022/11/08 01:03:22;;;;;;;8.95;2.25;;;13.30;99.90;;;;;;5034938;28;20127;-70
2022/11/08 01:05:51;;;;;;;8.00;2.22;;;13.30;99.90;;;;;;5051360;28;20036;-70
2022/11/08 01:08:17;;;;;;;10.75;2.22;;;13.20;99.90;;;;;;5069388;28;20045;-70
2022/11/08 01:10:46;;;;;;;14.02;2.40;;;13.20;99.90;;;;;;5069633;28;20543;-70
2022/11/08 01:13:12;;;;;;;13.70;2.60;;;13.30;99.90;;;;;;5051872;28;20041;-70
2022/11/08 01:15:40;;;;;;;9.80;2.22;;;13.20;99.90;;;;;;5035200;28;20044;-70
2022/11/08 01:18:07;;;;;;;8.27;2.30;;;13.20;99.90;;;;;;5054756;28;20041;-71
2022/11/08 01:20:37;;;;;;;13.15;3.13;;;13.20;99.90;;;;;;5032482;28;20494;-71
2022/11/08 01:23:03;;;;;;;9.25;2.05;;;13.20;99.90;;;;;;5047763;28;20041;-70
2022/11/08 01:25:28;;;;;;;10.73;2.70;;;13.10;99.90;;;;;;5051939;28;20052;-71
2022/11/08 01:27:54;;;;;;;12.85;2.60;;;13.10;99.90;;;;;;5051822;28;20068;-70
2022/11/08 01:30:19;;;;;;;9.82;2.38;;;13.10;99.90;;;;;;5052458;28;20445;-71
2022/11/08 01:32:45;;;;;;;10.13;2.20;;;13.10;99.90;;;;;;5050923;28;20049;-71
2022/11/08 01:35:11;;;;;;;14.43;2.63;;;13.00;99.90;;;;;;5068523;28;20047;-70
2022/11/08 01:37:36;;;;;;;10.35;2.40;;;13.00;99.90;;;;;;5035756;28;20461;-71
2022/11/08 01:40:03;;;;;;;8.65;2.40;;;13.00;99.90;;;;;;5034996;28;20428;-70
2022/11/08 01:42:30;;;;;;;8.82;2.47;;;13.00;99.90;;;;;;5052179;28;20047;-70
2022/11/08 01:45:08;;;;;;;8.23;1.83;;;13.00;99.90;;;;;;5035824;28;20048;-70
2022/11/08 01:47:33;;;;;;;11.73;3.08;;;13.00;99.90;;;;;;5035444;28;20401;-70
2022/11/08 01:50:17;;;;;;;9.07;2.17;;;13.00;99.90;;;;;;5052094;28;20036;-71
2022/11/08 01:52:54;;;;;;;13.07;2.75;;;13.00;99.90;;;;;;5051322;28;20044;-71
2022/11/08 01:55:29;;;;;;;9.68;2.63;;;13.00;99.90;;;;;;5051110;28;20076;-71
2022/11/08 01:58:05;;;;;;;12.20;2.65;;;12.90;99.90;;;;;;5052336;28;20441;-71
2022/11/08 02:00:30;;;;;;;8.30;2.15;;;12.90;99.90;;;;;;5051944;28;20528;-71
2022/11/08 02:03:00;;;;;;;10.57;2.42;;;12.90;99.90;;;;;;5051114;28;20045;-70
2022/11/08 02:05:28;;;;;;;12.10;2.65;;;12.90;99.90;;;;;;5051016;28;20040;-71
2022/11/08 02:07:54;;;;;;;9.10;2.15;;;12.90;99.90;;;;;;5035317;28;20052;-71
2022/11/08 02:10:23;;;;;;;10.27;2.20;;;12.90;99.90;;;;;;5051860;28;20033;-71
2022/11/08 02:12:50;;;;;;;12.70;2.33;;;12.90;99.90;;;;;;5050709;28;20048;-71
2022/11/08 02:15:19;;;;;;;11.73;2.78;;;12.90;99.90;;;;;;5051791;28;20090;-71
2022/11/08 02:17:45;;;;;;;12.45;2.53;;;12.90;99.90;;;;;;5034212;28;20045;-71
2022/11/08 02:20:10;;;;;;;9.52;2.10;;;12.80;99.90;;;;;;5051740;28;20052;-71
2022/11/08 02:22:45;;;;;;;9.95;2.20;;;12.80;99.90;;;;;;5051597;28;20457;-71
2022/11/08 02:25:11;;;;;;;8.98;2.13;;;12.80;99.90;;;;;;5052061;28;20045;-71
2022/11/08 02:27:37;;;;;;;10.60;3.15;;;12.80;99.90;;;;;;5050246;28;20398;-71
2022/11/08 02:30:03;;;;;;;10.00;2.53;;;12.80;99.90;;;;;;5051912;28;20044;-71
2022/11/08 02:32:41;;;;;;;8.18;2.45;;;12.80;99.90;;;;;;5051568;28;20043;-71
2022/11/08 02:35:14;;;;;;;9.40;2.25;;;12.80;99.90;;;;;;5051586;28;20047;-70
2022/11/08 02:37:40;;;;;;;9.73;2.05;;;12.70;99.90;;;;;;5050873;28;20455;-71
2022/11/08 02:40:06;;;;;;;12.05;3.13;;;12.70;99.90;;;;;;5050773;28;20041;-71
2022/11/08 02:42:32;;;;;;;10.32;2.17;;;12.70;99.90;;;;;;5051251;28;20516;-70
2022/11/08 02:44:57;;;;;;;7.82;2.10;;;12.60;99.90;;;;;;5062092;28;20037;-71
2022/11/08 02:47:23;;;;;;;10.75;2.33;;;12.60;99.90;;;;;;5039903;28;20041;-71
2022/11/08 02:49:49;;;;;;;10.82;2.83;;;12.60;99.90;;;;;;5061173;28;20060;-71
2022/11/08 02:52:15;;;;;;;10.27;2.58;;;12.60;99.90;;;;;;5026053;28;20040;-71
2022/11/08 02:54:41;;;;;;;9.77;2.38;;;12.60;99.90;;;;;;5043455;28;20462;-71
2022/11/08 02:57:06;;;;;;;7.78;1.95;;;12.60;99.90;;;;;;5023608;28;20037;-70
2022/11/08 02:59:32;;;;;;;11.30;2.60;;;12.60;99.90;;;;;;5047914;28;20068;-71
2022/11/08 03:01:57;;;;;;;10.75;2.22;;;12.50;99.90;;;;;;5051443;28;20405;-71
2022/11/08 03:04:23;;;;;;;8.73;2.30;;;12.50;99.90;;;;;;5054168;28;20113;-70
2022/11/08 03:06:49;;;;;;;12.82;2.80;;;12.50;99.90;;;;;;5053828;28;20603;-70
2022/11/08 03:09:14;;;;;;;10.02;2.55;;;12.50;99.90;;;;;;5037470;28;20568;-70
2022/11/08 03:11:40;;;;;;;10.77;2.80;;;12.50;99.90;;;;;;5051012;28;20076;-71
2022/11/08 03:14:05;;;;;;;8.95;2.33;;;12.40;99.90;;;;;;5044504;28;20045;-70
2022/11/08 03:16:31;;;;;;;10.10;2.28;;;12.50;99.90;;;;;;5051913;28;20037;-71
2022/11/08 03:18:57;;;;;;;14.35;3.00;;;12.50;99.90;;;;;;5043221;28;20504;-71
2022/11/08 03:21:23;;;;;;;10.45;2.40;;;12.50;99.90;;;;;;5055172;28;20083;-71
2022/11/08 03:23:48;;;;;;;12.23;2.50;;;12.40;99.90;;;;;;5054749;28;20509;-71
2022/11/08 03:26:14;;;;;;;10.65;2.67;;;12.50;99.90;;;;;;5071425;28;20130;-71
2022/11/08 03:28:39;;;;;;;9.38;2.40;;;12.40;99.90;;;;;;5038066;28;20040;-71
2022/11/08 03:31:05;;;;;;;12.23;2.28;;;12.40;99.90;;;;;;5068164;28;20037;-71
2022/11/08 03:33:30;;;;;;;12.57;4.00;;;12.40;99.90;;;;;;5054484;28;20049;-71
2022/11/08 03:35:56;;;;;;;9.38;2.47;;;12.40;99.90;;;;;;5054198;28;20033;-71
2022/11/08 03:38:22;;;;;;;9.10;2.30;;;12.30;99.90;;;;;;5053833;28;20075;-71
2022/11/08 03:40:47;;;;;;;10.55;2.40;;;12.40;99.90;;;;;;5053225;28;20037;-71
2022/11/08 03:43:13;;;;;;;9.23;2.20;;;12.40;99.90;;;;;;5070263;28;20061;-70
2022/11/08 03:45:38;;;;;;;6.82;2.10;;;12.30;99.90;;;;;;5036536;28;20090;-71
2022/11/08 03:48:04;;;;;;;8.68;2.28;;;12.40;99.90;;;;;;5066977;28;20033;-71
2022/11/08 03:50:30;;;;;;;10.88;2.45;;;12.30;99.90;;;;;;5053073;28;20133;-71
2022/11/08 03:52:56;;;;;;;10.20;2.63;;;12.30;99.90;;;;;;5037398;28;20076;-71
2022/11/08 03:55:25;;;;;;;12.55;2.60;;;12.30;99.90;;;;;;5036876;28;20086;-70
2022/11/08 03:57:51;;;;;;;9.50;2.40;;;12.30;99.90;;;;;;5037814;28;20055;-71
2022/11/08 04:00:23;;;;;;;8.13;2.25;;;12.20;99.90;;;;;;5053559;28;20056;-71
2022/11/08 04:02:48;;;;;;;10.40;2.35;;;12.10;99.90;;;;;;5036601;28;20140;-70
2022/11/08 04:05:14;;;;;;;6.40;1.90;;;12.10;99.90;;;;;;5036650;28;20132;-70
2022/11/08 04:07:40;;;;;;;13.30;2.67;;;12.10;99.90;;;;;;5053514;28;20045;-71
2022/11/08 04:10:07;;;;;;;6.28;2.17;;;12.00;99.90;;;;;;5053532;28;20036;-71
2022/11/08 04:15:20;;;;;;;8.07;2.30;;;12.10;99.90;;;;;;5040016;28;20136;-71
2022/11/08 04:23:25;;;;;;;9.98;2.35;;;12.00;99.90;;;;;;5052211;28;20041;-70
2022/11/08 04:25:56;;;;;;;10.10;2.50;;;12.00;99.90;;;;;;5043376;28;20095;-70
2022/11/08 04:28:26;;;;;;;7.30;2.55;;;12.10;99.90;;;;;;5046151;28;20033;-71
2022/11/08 04:30:57;;;;;;;8.38;2.38;;;12.00;99.90;;;;;;5051981;28;20041;-70
2022/11/08 04:33:23;;;;;;;7.40;2.25;;;11.90;99.90;;;;;;5036470;28;20409;-71
2022/11/08 04:35:49;;;;;;;8.90;2.30;;;11.90;99.90;;;;;;5052827;28;20520;-70
2022/11/08 04:38:15;;;;;;;8.00;2.10;;;11.90;99.90;;;;;;5068785;28;20056;-70
2022/11/08 04:40:41;;;;;;;7.28;2.53;;;11.90;99.90;;;;;;5036025;28;20436;-71
2022/11/08 04:43:06;;;;;;;7.15;2.28;;;11.90;99.90;;;;;;5052637;28;20048;-70
2022/11/08 04:45:32;;;;;;;8.75;2.55;;;11.90;99.90;;;;;;5035547;28;20393;-70
2022/11/08 04:47:58;;;;;;;9.50;2.00;;;11.90;99.90;;;;;;5051392;28;20106;-71
2022/11/08 04:50:23;;;;;;;9.57;2.30;;;11.90;99.90;;;;;;5048134;28;20120;-70
2022/11/08 04:52:53;;;;;;;8.52;2.60;;;11.90;99.90;;;;;;5046239;28;20037;-71
2022/11/08 04:55:20;;;;;;;7.35;2.40;;;11.90;99.90;;;;;;5051543;28;20033;-71
2022/11/08 04:57:47;;;;;;;7.72;2.50;;;11.90;99.90;;;;;;5052277;28;20414;-71
2022/11/08 05:00:13;;;;;;;5.20;1.88;;;11.90;99.90;;;;;;5067485;28;20481;-71
2022/11/08 05:02:39;;;;;;;8.35;2.00;;;11.90;99.90;;;;;;5049751;28;20060;-71
2022/11/08 05:05:05;;;;;;;6.25;2.15;;;11.90;99.90;;;;;;5052221;28;20049;-71
2022/11/08 05:07:31;;;;;;;9.45;2.25;;;11.80;99.90;;;;;;5049479;28;20408;-71
2022/11/08 05:09:56;;;;;;;11.73;2.00;;;11.90;99.90;;;;;;5052311;28;20037;-71
2022/11/08 05:12:22;;;;;;;7.63;1.85;;;11.80;99.90;;;;;;5051109;28;20059;-71
2022/11/08 05:14:48;;;;;;;7.80;1.92;;;11.80;99.90;;;;;;5051434;28;20116;-71
2022/11/08 05:17:14;;;;;;;8.80;2.33;;;11.80;99.90;;;;;;5049831;28;20024;-71
2022/11/08 05:25:28;;;;;;;9.60;2.25;;;11.80;99.90;;;;;;4992814;28;20133;-71
2022/11/08 05:27:53;;;;;;;8.48;2.00;;;11.80;99.90;;;;;;4973618;28;20277;-71
2022/11/08 05:30:19;;;;;;;7.90;2.38;;;11.80;99.90;;;;;;4997704;28;20044;-71
2022/11/08 05:32:44;;;;;;;6.97;2.10;;;11.70;99.90;;;;;;5051941;28;20048;-71
2022/11/08 05:35:10;;;;;;;8.32;1.95;;;11.70;99.90;;;;;;5050799;28;20048;-71
2022/11/08 05:37:38;;;;;;;7.80;2.22;;;11.70;99.90;;;;;;5034181;28;20405;-71
2022/11/08 05:40:05;;;;;;;7.03;2.00;;;11.70;99.90;;;;;;5051537;28;20087;-71
2022/11/08 05:42:30;;;;;;;7.15;2.30;;;11.70;99.90;;;;;;5051588;28;20120;-70
2022/11/08 05:44:56;;;;;;;6.18;2.00;;;11.80;99.90;;;;;;5050983;28;20445;-71
2022/11/08 05:47:21;;;;;;;7.13;2.13;;;11.80;99.90;;;;;;5032640;28;20037;-71
2022/11/08 05:49:47;;;;;;;8.10;2.22;;;11.80;99.90;;;;;;5049425;28;20091;-71
2022/11/08 05:52:12;;;;;;;7.30;2.10;;;11.70;99.90;;;;;;5035012;28;20052;-71
2022/11/08 05:54:38;;;;;;;7.50;2.08;;;11.70;99.90;;;;;;5051836;28;20075;-71
2022/11/08 05:57:03;;;;;;;9.15;2.00;;;11.80;99.90;;;;;;5035121;28;20029;-71
2022/11/08 05:59:29;;;;;;;9.07;2.00;;;11.80;99.90;;;;;;5050872;28;20078;-70
2022/11/08 06:01:54;;;;;;;6.70;1.73;;;11.80;99.90;;;;;;5034437;28;20120;-71
2022/11/08 06:04:20;;;;;;;7.57;1.73;;;11.80;99.90;;;;;;5034597;28;20513;-71
2022/11/08 06:06:48;;;;;;;7.13;1.80;;;11.90;99.90;;;;;;5034773;28;20505;-71
2022/11/08 06:09:14;;;;;;;9.65;2.78;;;11.90;99.90;;;;;;5034131;28;20401;-71
2022/11/08 06:11:39;;;;;;;9.10;1.90;;;11.90;99.90;;;;;;5051230;28;20044;-71
2022/11/08 06:14:05;;;;;;;7.15;2.10;;;11.90;99.90;;;;;;5050782;28;20098;-71
2022/11/08 06:16:31;;;;;;;3.80;1.40;;;12.00;99.90;;;;;;5051047;28;20037;-70
2022/11/08 06:18:56;;;;;;;5.53;1.67;;;12.10;99.90;;;;;;5056210;28;20054;-70
2022/11/08 06:21:22;;;;;;;6.07;1.77;;;12.00;99.90;;;;;;5056931;28;20500;-71
2022/11/08 06:23:51;;;;;;;6.75;2.00;;;12.00;99.90;;;;;;5041851;28;20238;-71
2022/11/08 06:26:16;;;;;;;8.15;1.90;;;12.00;99.90;;;;;;5073635;28;20405;-70
2022/11/08 06:28:42;;;;;;;8.43;3.33;;;12.00;99.90;;;;;;5042058;28;20037;-71
2022/11/08 06:31:08;;;;;;;13.90;5.95;;;12.00;99.90;;;;;;5039957;28;20514;-71
2022/11/08 06:33:34;;;;;;;10.60;3.95;;;12.00;99.90;;;;;;5074319;28;20045;-71
2022/11/08 06:35:59;;;;;;;10.25;3.50;;;11.90;99.90;;;;;;5040081;28;20037;-71
2022/11/08 06:38:25;;;;;;;9.77;4.57;;;11.90;99.90;;;;;;5057968;28;20072;-71
2022/11/08 06:40:51;;;;;;;8.52;2.65;;;12.00;99.90;;;;;;5056787;28;20485;-71
2022/11/08 06:43:16;;;;;;;3.45;1.35;;;12.00;99.90;;;;;;5040672;28;20066;-70
2022/11/08 06:45:42;;;;;;;6.78;1.67;;;12.00;99.90;;;;;;5056329;28;20074;-71
2022/11/08 06:48:08;;;;;;;7.28;1.85;;;12.00;99.90;;;;;;5073059;28;20132;-70
2022/11/08 06:50:34;;;;;;;6.30;1.55;;;11.90;99.90;;;;;;5057062;28;20068;-71
2022/11/08 06:53:05;;;;;;;8.10;2.15;;;12.00;99.90;;;;;;5072762;28;20045;-71
2022/11/08 06:55:32;;;;;;;8.80;2.20;;;12.00;99.90;;;;;;5056610;28;20045;-71
2022/11/08 06:57:58;;;;;;;5.93;2.17;;;11.90;99.90;;;;;;5056111;28;20489;-70
2022/11/08 07:00:24;;;;;;;5.70;1.83;;;11.90;99.90;;;;;;5074199;28;20116;-71
2022/11/08 07:02:57;;;;;;;8.70;2.83;;;11.90;99.90;;;;;;5057031;28;20045;-71
2022/11/08 07:05:23;;;;;;;9.15;2.55;;;11.90;99.90;;;;;;5074148;28;20135;-70
2022/11/08 07:07:52;;;;;;;6.90;2.45;;;11.70;99.90;;;;;;5056513;28;20501;-71
2022/11/08 07:10:20;;;;;;;8.02;2.33;;;11.70;99.90;;;;;;5057272;28;20041;-71
2022/11/08 07:12:46;;;;;;;8.70;2.47;;;11.90;99.90;;;;;;5073940;28;20039;-71
2022/11/08 07:15:13;;;;;;;11.20;2.20;;;11.80;99.90;;;;;;5056451;28;20041;-71
2022/11/08 07:17:39;;;;;;;7.40;2.20;;;11.80;99.90;;;;;;5056530;28;20044;-71
2022/11/08 07:20:05;;;;;;;6.30;2.45;;;11.80;99.90;;;;;;5056943;28;20033;-71
2022/11/08 07:22:31;;;;;;;10.27;2.13;;;11.80;99.90;;;;;;5056811;28;20037;-71
2022/11/08 07:24:56;;;;;;;6.82;2.30;;;11.80;99.90;;;;;;5055973;28;20471;-71
2022/11/08 07:27:22;;;;;;;6.75;2.38;;;11.90;99.90;;;;;;5056182;28;20401;-71
2022/11/08 07:29:48;;;;;;;9.05;2.40;;;11.80;99.90;;;;;;5051351;28;20033;-71
2022/11/08 07:32:13;;;;;;;6.45;2.10;;;11.90;99.90;;;;;;5037214;28;20037;-71
2022/11/08 07:34:39;;;;;;;10.68;2.83;;;11.90;99.90;;;;;;5059288;28;20051;-71
2022/11/08 07:37:04;;;;;;;8.15;2.30;;;11.90;99.90;;;;;;5053590;28;20033;-69
2022/11/08 07:39:30;;;;;;;4.13;1.90;;;11.90;99.90;;;;;;5053466;28;20485;-71
2022/11/08 07:41:55;;;;;;;9.27;2.60;;;12.00;99.90;;;;;;5055125;28;20120;-71
2022/11/08 07:44:21;;;;;;;8.15;2.40;;;12.00;99.90;;;;;;5054472;28;20090;-71
2022/11/08 07:46:46;;;;;;;7.22;2.30;;;11.90;99.90;;;;;;5054382;28;20037;-71
2022/11/08 07:49:12;;;;;;;5.50;1.80;;;11.90;99.90;;;;;;5054635;28;20095;-71
2022/11/08 07:51:37;;;;;;;6.88;2.20;;;12.00;99.90;;;;;;5054801;28;20044;-71
2022/11/08 07:54:03;;;;;;;4.72;2.10;;;12.00;99.90;;;;;;5037658;28;20508;-71
2022/11/08 07:56:29;;;;;;;9.05;1.90;;;12.00;99.90;;;;;;5054162;28;20033;-71
2022/11/08 07:58:54;;;;;;;8.05;2.40;;;12.00;99.90;;;;;;5054466;28;20051;-71
2022/11/08 08:01:20;;;;;;;4.70;1.80;;;12.00;99.90;;;;;;5054304;28;20037;-71
2022/11/08 08:03:46;;;;;;;8.35;2.17;;;12.00;99.90;;;;;;5053959;28;20137;-71
2022/11/08 08:06:11;;;;;;;8.57;2.15;;;12.10;99.90;;;;;;5054069;28;20045;-72
2022/11/08 08:08:37;;;;;;;6.40;2.20;;;12.00;99.90;;;;;;5037670;28;20041;-71
2022/11/08 08:11:04;;;;;;;5.43;1.80;;;12.10;99.90;;;;;;5037565;28;20370;-71
2022/11/08 08:13:30;;;;;;;6.80;2.03;;;12.10;99.90;;;;;;5037232;28;20047;-71
2022/11/08 08:16:01;;;;;;;5.00;2.22;;;12.10;99.90;;;;;;5053790;28;20033;-71
2022/11/08 08:18:28;;;;;;;7.40;1.92;;;12.10;99.90;;;;;;5053855;28;20041;-72
2022/11/08 08:20:54;;;;;;;7.30;2.13;;;12.10;99.90;;;;;;5037398;28;20052;-72
2022/11/08 08:23:19;;;;;;;5.85;1.75;;;12.20;99.90;;;;;;5053705;28;20541;-72
2022/11/08 08:25:45;;;;;;;6.38;1.92;;;12.30;99.90;;;;;;5037310;28;20073;-71
2022/11/08 08:28:11;;;;;;;8.50;2.17;;;12.40;99.90;;;;;;5053639;28;20496;-71
2022/11/08 08:30:37;;;;;;;5.03;1.80;;;12.40;99.90;;;;;;5053624;28;20048;-71
2022/11/08 08:33:10;;;;;;;9.43;2.35;;;12.50;99.90;;;;;;5051825;28;20045;-71
2022/11/08 08:35:36;;;;;;;5.93;1.73;;;12.70;99.90;;;;;;5033026;28;20036;-72
2022/11/08 08:38:03;;;;;;;6.82;1.88;;;12.60;99.90;;;;;;5052744;28;20041;-71
2022/11/08 08:40:29;;;;;;;8.02;2.10;;;12.70;99.90;;;;;;5052903;28;20044;-72
2022/11/08 08:42:57;;;;;;;6.88;1.65;;;12.80;99.90;;;;;;5053654;28;20536;-71
2022/11/08 08:45:23;;;;;;;6.00;2.15;;;12.80;99.90;;;;;;5052473;28;20603;-71
2022/11/08 08:47:53;;;;;;;7.13;1.80;;;12.80;99.90;;;;;;5053332;28;20123;-71
2022/11/08 08:50:19;;;;;;;5.68;1.75;;;12.90;99.90;;;;;;5053227;28;20040;-71
2022/11/08 08:52:45;;;;;;;5.75;1.70;;;12.90;99.90;;;;;;5068823;28;20071;-71
2022/11/08 08:55:11;;;;;;;7.82;2.00;;;13.00;99.90;;;;;;5069465;28;20095;-71
2022/11/08 08:57:36;;;;;;;5.93;1.60;;;13.00;99.90;;;;;;5053201;28;20048;-71
2022/11/08 09:00:03;;;;;;;4.32;1.80;;;13.00;99.90;;;;;;5053047;28;20033;-71
2022/11/08 09:02:28;;;;;;;7.05;1.90;;;13.10;99.90;;;;;;5052839;28;20088;-71
2022/11/08 09:04:54;;;;;;;5.97;1.83;;;13.20;99.90;;;;;;5052219;28;20141;-71
2022/11/08 09:07:19;;;;;;;6.95;1.90;;;13.30;99.90;;;;;;5069467;28;20045;-71
2022/11/08 09:09:45;;;;;;;4.13;1.52;;;13.30;99.90;;;;;;5068411;28;20036;-71
2022/11/08 09:12:10;;;;;;;5.38;1.67;;;13.30;99.90;;;;;;5052804;28;20393;-71
2022/11/08 09:14:36;;;;;;;4.63;1.40;;;13.30;99.90;;;;;;5036099;28;20063;-71
2022/11/08 09:17:02;;;;;;;6.10;1.88;;;13.40;99.90;;;;;;5052631;28;20033;-71
2022/11/08 09:19:27;;;;;;;5.35;1.40;;;13.40;99.90;;;;;;5051800;28;20041;-71
2022/11/08 09:21:53;;;;;;;4.07;1.38;;;13.50;99.90;;;;;;5069181;28;20448;-71
2022/11/08 09:24:18;;;;;;;2.58;1.23;;;13.50;99.90;;;;;;5052656;28;20044;-71
2022/11/08 09:26:44;;;;;;;5.05;1.88;;;13.60;99.90;;;;;;5043430;28;20095;-71
2022/11/08 09:29:10;;;;;;;7.05;1.88;;;13.60;99.90;;;;;;5069071;28;20095;-71
2022/11/08 09:31:35;;;;;;;6.55;1.88;;;13.70;99.90;;;;;;5052488;28;20040;-72
2022/11/08 09:34:01;;;;;;;5.47;1.70;;;13.70;99.90;;;;;;5052409;28;20045;-72
2022/11/08 09:36:26;;;;;;;5.80;1.77;;;13.70;99.90;;;;;;5052591;28;20508;-71
2022/11/08 09:38:52;;;;;;;5.60;1.70;;;13.70;99.90;;;;;;5068971;28;20559;-71
2022/11/08 09:41:46;;;;;;;5.78;1.80;;;13.80;99.90;;;;;;5052269;28;20048;-72
2022/11/08 09:44:41;;;;;;;6.97;1.60;;;13.80;99.90;;;;;;5052509;28;20397;-72
2022/11/08 09:47:33;;;;;;;5.40;1.70;;;13.80;99.90;;;;;;5026929;28;20049;-72
2022/11/08 09:50:19;;;;;;;6.35;2.13;;;13.90;99.90;;;;;;5068909;28;20090;-72
2022/11/08 09:52:59;;;;;;;5.65;1.90;;;13.90;99.90;;;;;;5051591;28;20078;-71
2022/11/08 09:55:35;;;;;;;5.28;2.08;;;13.80;99.90;;;;;;5052190;28;20037;-71
2022/11/08 09:58:39;;;;;;;6.30;1.60;;;13.80;99.90;;;;;;5051939;28;20073;-72
2022/11/08 10:01:10;;;;;;;5.32;1.75;;;13.80;99.90;;;;;;5069070;28;20397;-71
2022/11/08 10:03:36;;;;;;;6.43;1.90;;;13.80;99.90;;;;;;5066971;28;20052;-71
2022/11/08 10:06:18;;;;;;;5.30;1.90;;;13.90;99.90;;;;;;5051489;28;20413;-71
2022/11/08 10:08:54;;;;;;;5.18;2.20;;;13.90;99.90;;;;;;5051922;28;20086;-72
2022/11/08 10:11:36;;;;;;;7.65;2.10;;;13.90;99.90;;;;;;5035607;28;20461;-71
2022/11/08 10:14:29;;;;;;;5.28;2.00;;;13.90;99.90;;;;;;5035238;28;20041;-71
2022/11/08 10:17:05;;;;;;;9.43;1.80;;;13.90;99.90;;;;;;5051700;28;20045;-71
2022/11/08 10:20:04;;;;;;;4.53;1.85;;;14.00;99.90;;;;;;5035300;28;20516;-71
2022/11/08 10:22:43;;;;;;;4.38;1.73;;;14.00;99.90;;;;;;5051927;28;20052;-71
2022/11/08 10:25:17;;;;;;;3.95;1.70;;;14.00;99.90;;;;;;5035180;28;20055;-71
2022/11/08 10:27:43;;;;;;;5.72;1.95;;;14.00;99.90;;;;;;5033720;28;20037;-71
2022/11/08 10:30:18;;;;;;;3.85;1.70;;;14.00;99.90;;;;;;5065390;28;20413;-71
2022/11/08 10:32:48;;;;;;;6.20;2.10;;;14.10;99.90;;;;;;5067702;28;20074;-72
2022/11/08 10:35:13;;;;;;;4.15;1.50;;;14.10;99.90;;;;;;5049619;28;20045;-71
2022/11/08 10:37:41;;;;;;;8.15;2.00;;;14.20;99.90;;;;;;5051761;28;20059;-71
2022/11/08 10:40:35;;;;;;;5.05;1.80;;;14.20;99.90;;;;;;5033130;28;20443;-72
2022/11/08 10:43:18;;;;;;;5.15;1.80;;;14.30;99.90;;;;;;5051658;28;20120;-71
2022/11/08 10:45:44;;;;;;;4.38;1.80;;;14.40;99.90;;;;;;5035345;28;20037;-71
2022/11/08 10:48:11;;;;;;;7.47;2.38;;;14.40;99.90;;;;;;5050485;28;20045;-72
2022/11/08 10:50:45;;;;;;;4.43;1.80;;;14.40;99.90;;;;;;5051545;28;20124;-72
2022/11/08 10:53:26;;;;;;;5.57;1.77;;;14.40;99.90;;;;;;5050201;28;20038;-71
2022/11/08 10:55:59;;;;;;;4.43;1.63;;;14.40;99.90;;;;;;5068234;28;20041;-71
2022/11/08 10:58:35;;;;;;;7.40;2.20;;;14.40;99.90;;;;;;5050647;28;20389;-71
2022/11/08 11:01:05;;;;;;;6.60;1.70;;;14.40;99.90;;;;;;5068127;28;20091;-71
2022/11/08 11:03:31;;;;;;;5.60;1.85;;;14.30;99.90;;;;;;5050376;28;20783;-71
2022/11/08 11:06:02;;;;;;;5.93;1.90;;;14.30;99.90;;;;;;5036263;28;20044;-72
2022/11/08 11:08:28;;;;;;;2.90;1.48;;;14.30;99.90;;;;;;5051713;28;20041;-71
2022/11/08 11:10:54;;;;;;;3.78;1.40;;;14.20;99.90;;;;;;5038088;28;20048;-71
2022/11/08 11:13:27;;;;;;;5.57;1.90;;;14.20;99.90;;;;;;5055022;28;20101;-71
2022/11/08 11:15:59;;;;;;;5.32;1.90;;;14.20;99.90;;;;;;5038126;28;20064;-71
2022/11/08 11:18:37;;;;;;;5.43;1.80;;;14.20;99.90;;;;;;5043858;28;20041;-71
2022/11/08 11:21:13;;;;;;;3.65;1.60;;;14.20;99.90;;;;;;5050804;28;20124;-71
2022/11/08 11:24:02;;;;;;;4.03;1.42;;;14.20;99.90;;;;;;5040978;28;20084;-71
2022/11/08 11:26:52;;;;;;;6.47;1.77;;;14.20;99.90;;;;;;5051027;28;20279;-71
2022/11/08 11:29:22;;;;;;;4.43;1.58;;;14.30;99.90;;;;;;5048404;28;20041;-71
2022/11/08 11:31:51;;;;;;;4.18;1.58;;;14.30;99.90;;;;;;5050937;28;20493;-71
2022/11/08 11:34:16;;;;;;;4.35;1.88;;;14.40;99.90;;;;;;5046334;28;20033;-71
2022/11/08 11:36:51;;;;;;;4.10;1.40;;;14.40;99.90;;;;;;5053984;28;20040;-71
2022/11/08 11:39:26;;;;;;;3.78;1.52;;;14.50;99.90;;;;;;5071045;28;20037;-71
2022/11/08 11:42:15;;;;;;;5.57;1.67;;;14.50;99.90;;;;;;5063988;28;20043;-71
2022/11/08 11:45:08;;;;;;;5.35;1.70;;;14.50;99.90;;;;;;5070664;28;20048;-71
2022/11/08 11:47:46;;;;;;;4.85;1.60;;;14.60;99.90;;;;;;5023257;28;20563;-72
2022/11/08 11:50:30;;;;;;;6.03;2.15;;;14.60;99.90;;;;;;5049989;28;20041;-71
2022/11/08 11:52:56;;;;;;;4.55;1.45;;;14.60;99.90;;;;;;5066080;28;20110;-72
2022/11/08 11:55:48;;;;;;;4.97;1.52;;;14.60;99.90;;;;;;5036184;28;20053;-71
2022/11/08 11:58:32;;;;;;;4.63;1.63;;;14.60;99.90;;;;;;5013360;28;20080;-71
2022/11/08 12:01:16;;;;;;;6.25;1.70;;;14.70;99.90;;;;;;5038334;28;20033;-71
2022/11/08 12:04:22;;;;;;;6.47;1.58;;;14.60;99.90;;;;;;5051828;28;20057;-71
2022/11/08 12:07:11;;;;;;;5.13;1.55;;;14.70;99.90;;;;;;5051992;28;20413;-71
2022/11/08 12:10:01;;;;;;;4.28;1.70;;;14.70;99.90;;;;;;5067153;28;20037;-71
2022/11/08 12:12:52;;;;;;;4.55;1.70;;;14.70;99.90;;;;;;5051256;28;20131;-71
2022/11/08 12:15:46;;;;;;;5.75;1.60;;;14.70;99.90;;;;;;5050438;28;20041;-71
2022/11/08 12:18:45;;;;;;;3.83;1.60;;;14.70;99.90;;;;;;5065032;28;20033;-71
2022/11/08 12:21:13;;;;;;;2.47;1.20;;;14.80;99.90;;;;;;5049438;28;20045;-71
2022/11/08 12:24:03;;;;;;;4.85;1.48;;;14.80;99.90;;;;;;5068707;28;20045;-71
2022/11/08 12:26:53;;;;;;;6.53;1.65;;;14.80;99.90;;;;;;5052616;28;20071;-71
2022/11/08 12:29:25;;;;;;;3.17;1.55;;;14.80;99.90;;;;;;5051890;28;20444;-71
2022/11/08 12:32:00;;;;;;;5.53;1.60;;;14.80;99.90;;;;;;5051792;28;20044;-71
2022/11/08 12:34:39;;;;;;;2.40;1.30;;;14.90;99.90;;;;;;5035365;28;20045;-71
2022/11/08 12:37:23;;;;;;;4.85;1.75;;;14.80;99.90;;;;;;5052988;28;20124;-71
2022/11/08 12:39:58;;;;;;;5.63;1.58;;;14.80;99.90;;;;;;5068418;28;20092;-71
2022/11/08 12:42:41;;;;;;;5.43;1.73;;;14.80;99.90;;;;;;5042661;28;20040;-71
2022/11/08 12:45:30;;;;;;;4.15;1.70;;;14.80;99.90;;;;;;5050632;28;20044;-71
2022/11/08 12:48:23;;;;;;;4.90;1.70;;;14.80;99.90;;;;;;5066810;28;20041;-71
2022/11/08 12:50:57;;;;;;;6.53;1.70;;;14.80;99.90;;;;;;5052358;28;20405;-71
2022/11/08 12:53:39;;;;;;;7.68;1.80;;;14.80;99.90;;;;;;5048326;28;20059;-71
2022/11/08 12:56:10;;;;;;;;;;;14.80;99.90;;;;;;5046578;28;20029;-71
2022/11/08 12:58:41;;;;;;;5.60;1.55;;;14.80;99.90;;;;;;5045229;28;19924;-71
2022/11/08 13:01:12;;;;;;;3.70;1.42;;;14.80;99.90;;;;;;5036441;28;20063;-71
2022/11/08 13:03:49;;;;;;;6.22;1.90;;;14.80;99.90;;;;;;5036289;28;20056;-71
2022/11/08 13:06:40;;;;;;;3.90;1.50;;;14.80;99.90;;;;;;5052732;28;20037;-71
2022/11/08 13:09:28;;;;;;;5.28;1.63;;;14.90;99.90;;;;;;5039065;28;20448;-71
2022/11/08 13:12:27;;;;;;;5.45;1.40;;;14.90;99.90;;;;;;5053074;28;20048;-71
2022/11/08 13:14:53;;;;;;;3.85;1.60;;;14.80;99.90;;;;;;5042014;28;20485;-71
2022/11/08 13:17:25;;;;;;;4.65;1.80;;;14.80;99.90;;;;;;5065681;28;20032;-71
2022/11/08 13:19:52;;;;;;;;;;;14.80;99.90;;;;;;5053307;28;20098;-72
2022/11/08 13:22:27;;;;;;;4.13;1.42;;;14.80;99.90;;;;;;5036652;28;19916;-71